Conway, WA (98238)

7:05 PM PST on December 05, 2016 (GMT -0800)
Cascade Ridge Court | | Change Station
Active Advisory: Winter Weather Advisory

Elev 171 ft 48.38 °N, 122.30 °W | Updated 7 seconds ago

Light Rain
Light Rain Showers
33.6 °F
Feels Like 34 °F
N
0.0
Wind Variable Wind from SE
Gusts 0.0 mph

Today
High -- | Low -- °F
--% Chance of Precip.
Yesterday
High -- | Low -- °F
Precip. -- in
Pressure 30.06 in
Visibility 10.0 miles
Clouds Mostly Cloudy 1400 ft
Mostly Cloudy 2000 ft
Overcast 7500 ft
Windchill 34 °F
Dew Point 32 °F
Humidity 93%
Rainfall 0.07 in
Snow Depth Not available.
7:44 AM 4:15 PM
Waxing Crescent, 37% visible
SPECI KNUW 060303Z 01005KT 10SM -RASN BKN014 BKN020 OVC075 04/01 A3006 RMK AO2 P0000 T00390006 $
Pressure 30.06 in
Visibility 10.0 miles
Clouds Mostly Cloudy 1400 ft
Mostly Cloudy 2000 ft
Overcast 7500 ft
Windchill 34 °F
Dew Point 32 °F
Humidity 93%
Rainfall 0.07 in
Snow Depth Not available.
7:44 AM 4:15 PM
Waxing Crescent, 37% visible
SPECI KNUW 060303Z 01005KT 10SM -RASN BKN014 BKN020 OVC075 04/01 A3006 RMK AO2 P0000 T00390006 $

10-Day Weather Forecast

Almanac

Astronomy

Dec. 05, 2016 Rise Set
Actual Time
Civil Twilight
Nautical Twilight
Astronomical Twilight
Moon
Length of Visible Light
Length of Day
Tomorrow will be .
, % of the Moon is Illuminated

Today's Extremes

State Highs State Lows

Community

WunderPhotos

Upload Photos

1,955,914 photos uploaded!

WunderBlog® & News

Nearby

Air Quality

  Air Quality AQ Index Pollutant
Not available.

Snow Depth

Station Depth Elevation

Earthquake Activity

City Distance Mag. Time & Date
Minimum magnitude displayed is 2.5.

Coastal Water Temperatures

Place Temperature

Stations

Nearby Weather Stations

Station Location Temp. Windchill Dew Point Humidity Wind Precip. Elev Updated Type
                   

Watches & Warnings

Winter Weather Advisory
Issued: 2:50 PM PST Dec. 5, 2016 – National Weather Service

... Winter Weather Advisory in effect until midnight PST tonight...

The National Weather Service in Seattle has issued a Winter Weather
Advisory for snow... which is in effect until midnight PST
tonight.

* Timing... snow showers are possible this evening with
temperatures dropping below freezing. Fraser River outflow will
bring north to northeast winds of 20 to 30 mph with gusts to 40
mph to western Whatcom County and the San Juan Islands. Snow
showers will push south of the area after midnight.

* Snow amounts... most areas will see a trace to 1 inch of snow
with up to 3 inches of snow on the higher hills.

* Impacts... snow and ice on some roadways and bridges may cause
slippery driving conditions.

Precautionary/preparedness actions...

A Winter Weather Advisory for snow means that periods of snow
will cause primarily travel difficulties. Be prepared for snow
covered roads and limited visibilities, and use caution while
driving.